Мантурово

СКИДКИ НА СМАРТФОНЫ!

Карта отелей и гостиниц, располагающихся рядом с аэропортом Мантурово :

Мантурово Костромская область 58° 22' 2.82" N, 44° 47' 45.24" E
Код аэродрома ИКАО
ZA7U
Код аэродрома RU
ЗА7У
Координаты
N58.36745° E044.79590°
Превышение над уровнем моря
120
Основная полоса
08/26
Курс магнитный
081,6/261,6
Длина основной ВПП
602
Ширина основной ВПП
26
Покрытие основной ВПП
Твёрдое (асфальт)
Освещение ВПП
Нет
Тип: 
Аэродром
Класс аэродрома: 
Принадлежность: 
ГА
Статус: 
Недействующий
Сайт: 
E-mail аэродрома: 
kostraviales@mail.ru
Страна: 
Россия
Регион: 
Костромская область
Город: 
Дополнительная информация: 
Оператор: нет данных. Используется местными любителями СЛА. Пригодна к эксплуатации. На ВПП множество мелкой асфальтной крошки.

Скидки на навигаторы!

Найти трансфер

С помощью этой формы Вы можете найти трансфер из аэропорта Мантурово в город, аэропорт или вокзал:

Погода в аэропортах:

Авиационная погода в Усть-Каменогорске

Регион: 
Погода METAR: 
UASK 190000Z 10002MPS 3000 BR BCFG NSC 03/02 Q1014 TEMPO 1500 BR SCT005 RMK QFE735/0980
Время наблюдения
2022-08-19T00:00:00Z
Температура C
3.0
Точка росы
2.0
Направление ветра
100
Скорость ветра (узлы)
4
Метео видимость
1.86
Облачность
CLR
Нижняя граница облачности (футы)
Явления погоды
BR BCFG
Условия полета
IFR
Аэропорт подробнее: 
CLR — нет облаков ниже 3000 м
FG – туман (небо не видно, температура воздуха выше нуля или ноль); BR – дымка (видимость от 1 до 9 км);

Авиационная погода в Сургуте

Регион: 
Погода METAR: 
USRR 190000Z 33005MPS 5000 -RA BR OVC003 11/10 Q1021 R25/CLRD60 TEMPO 1000 RA BR OVC001 RMK OBST OBSC QFE760
Время наблюдения
2022-08-19T00:00:00Z
Температура C
11.0
Точка росы
10.0
Направление ветра
330
Скорость ветра (узлы)
10
Метео видимость
3.11
Облачность
OVC
Нижняя граница облачности (футы)
300
Явления погоды
-RA BR
Условия полета
LIFR
Аэропорт подробнее: 
OVC – сплошная облачность;
-RA - слабый дождь; BR – дымка (видимость от 1 до 9 км);

Авиационная погода в Стамбуле

Регион: 
Погода METAR: 
LTFM 190050Z 32006KT 0400 R35R/0900N R17L/0325N R34L/0600N R36/0650D FG VV001 23/23 Q1010 NOSIG RMK RWY17L 29005KT RWY34L 31006KT RWY16R 28003KT RWY36 30004KT RWY18 29005KT
Время наблюдения
2022-08-19T00:50:00Z
Температура C
23.0
Точка росы
23.0
Направление ветра
320
Скорость ветра (узлы)
6
Метео видимость
0.25
Облачность
OVX
Нижняя граница облачности (футы)
0
Явления погоды
FG
Условия полета
LIFR
FG – туман (небо не видно, температура воздуха выше нуля или ноль);

Авиационная погода в Мирном

Регион: 
Погода METAR: 
UERR 190100Z 03003MPS 3000 BR OVC003 10/10 Q0998 R25/290255 NOSIG RMK QBB100 QFE718/0957
Время наблюдения
2022-08-19T01:00:00Z
Температура C
10.0
Точка росы
10.0
Направление ветра
30
Скорость ветра (узлы)
6
Метео видимость
1.86
Облачность
OVC
Нижняя граница облачности (футы)
300
Явления погоды
BR
Условия полета
LIFR
Аэропорт подробнее: 
OVC – сплошная облачность;
BR – дымка (видимость от 1 до 9 км);